createdAt,value
2023-04-15T00:02:00.354Z,3.17
2023-04-15T00:04:28.495Z,7.03
2023-04-15T00:06:56.065Z,4.27
2023-04-15T00:09:23.933Z,3.87
2023-04-15T00:11:53.632Z,5.20
2023-04-15T00:14:21.115Z,4.73
2023-04-15T00:16:55.223Z,3.47
2023-04-15T00:19:22.914Z,3.27
2023-04-15T00:21:50.463Z,4.03
2023-04-15T00:24:18.270Z,3.27
2023-04-15T00:26:45.717Z,4.40
2023-04-15T00:29:15.208Z,5.43
2023-04-15T00:31:43.209Z,3.57
2023-04-15T00:34:10.838Z,4.20
2023-04-15T00:36:38.337Z,3.83
2023-04-15T00:39:06.234Z,4.43
2023-04-15T00:41:34.512Z,3.73
2023-04-15T00:44:03.411Z,4.47
2023-04-15T00:46:34.275Z,5.70
2023-04-15T00:49:02.403Z,6.53
2023-04-15T00:51:31.033Z,4.63
2023-04-15T00:53:58.656Z,4.40
2023-04-15T00:56:27.069Z,6.50
2023-04-15T00:58:55.040Z,8.10
2023-04-15T01:01:23.228Z,5.50
2023-04-15T01:03:52.738Z,6.67
2023-04-15T01:06:20.576Z,6.83
2023-04-15T01:08:48.153Z,7.47
2023-04-15T01:11:16.568Z,10.80
2023-04-15T01:13:44.240Z,6.90
2023-04-15T01:16:13.028Z,6.47
2023-04-15T01:18:41.715Z,7.07
2023-04-15T01:21:10.650Z,6.10
2023-04-15T01:23:39.101Z,9.47
2023-04-15T01:26:09.866Z,6.43
2023-04-15T01:28:38.346Z,7.30
2023-04-15T01:31:08.375Z,10.90
2023-04-15T01:33:38.915Z,6.93
2023-04-15T01:36:09.914Z,6.77
2023-04-15T01:38:38.104Z,10.33
2023-04-15T01:41:07.598Z,7.53
2023-04-15T01:43:37.359Z,8.23
2023-04-15T01:46:05.091Z,12.00
2023-04-15T01:48:33.443Z,9.37
2023-04-15T01:51:01.382Z,11.43
2023-04-15T01:53:29.351Z,7.80
2023-04-15T01:55:57.184Z,11.40
2023-04-15T01:58:25.017Z,9.83
2023-04-15T02:00:53.876Z,10.40
2023-04-15T02:03:21.703Z,8.27
2023-04-15T02:05:49.389Z,8.57
2023-04-15T02:08:17.149Z,5.97
2023-04-15T02:10:44.684Z,8.47
2023-04-15T02:13:12.142Z,10.40
2023-04-15T02:15:39.599Z,6.93
2023-04-15T02:18:08.485Z,13.93
2023-04-15T02:20:37.904Z,6.90
2023-04-15T02:23:07.285Z,9.20
2023-04-15T02:25:34.754Z,11.37
2023-04-15T02:28:02.217Z,7.00
2023-04-15T02:30:29.698Z,10.83
2023-04-15T02:32:57.226Z,10.70
2023-04-15T02:35:27.665Z,9.07
2023-04-15T02:37:55.662Z,8.93
2023-04-15T02:40:23.463Z,10.07
2023-04-15T02:42:51.586Z,10.30
2023-04-15T02:45:23.584Z,8.30
2023-04-15T02:47:51.092Z,10.57
2023-04-15T02:50:20.036Z,13.00
2023-04-15T02:52:48.975Z,9.87
2023-04-15T02:55:17.946Z,16.63
2023-04-15T02:57:45.497Z,12.47
2023-04-15T03:00:14.433Z,12.60
2023-04-15T03:02:45.470Z,14.67
2023-04-15T03:05:14.089Z,13.00
2023-04-15T03:07:49.228Z,14.97
2023-04-15T03:10:16.974Z,14.57
2023-04-15T03:12:44.544Z,11.53
2023-04-15T03:15:17.236Z,11.53
2023-04-15T03:17:49.555Z,15.40
2023-04-15T03:20:17.629Z,15.20
2023-04-15T03:22:45.395Z,15.10
2023-04-15T03:25:14.222Z,15.37
2023-04-15T03:27:42.695Z,18.57
2023-04-15T03:30:11.108Z,15.77
2023-04-15T03:32:39.905Z,16.53
2023-04-15T03:35:09.577Z,16.20
2023-04-15T03:37:37.074Z,15.63
2023-04-15T03:40:04.784Z,15.43
2023-04-15T03:42:33.548Z,17.60
2023-04-15T03:45:00.963Z,16.13
2023-04-15T03:47:28.531Z,15.77
2023-04-15T03:49:55.993Z,15.13
2023-04-15T03:52:23.419Z,16.40
2023-04-15T03:54:51.413Z,13.00
2023-04-15T03:57:18.899Z,18.70
2023-04-15T03:59:48.102Z,16.73
2023-04-15T04:02:15.608Z,15.70
2023-04-15T04:04:43.731Z,18.37
2023-04-15T04:07:16.352Z,16.20
2023-04-15T04:09:44.791Z,16.60
2023-04-15T04:12:13.177Z,14.90
2023-04-15T04:14:40.806Z,17.40
2023-04-15T04:17:09.962Z,17.67
2023-04-15T04:19:37.485Z,12.97
2023-04-15T04:22:05.011Z,12.80
2023-04-15T04:24:32.590Z,13.50
2023-04-15T04:27:00.048Z,15.00
2023-04-15T04:29:27.555Z,13.90
2023-04-15T04:31:55.045Z,14.03
2023-04-15T04:34:23.902Z,15.57
2023-04-15T04:36:51.530Z,19.07
2023-04-15T04:39:19.058Z,15.83
2023-04-15T04:41:46.579Z,15.13
2023-04-15T04:44:14.063Z,15.87
2023-04-15T04:46:41.522Z,15.97
2023-04-15T04:49:09.171Z,12.73
2023-04-15T04:51:38.072Z,14.37
2023-04-15T04:54:05.576Z,14.70
2023-04-15T04:56:34.240Z,14.87
2023-04-15T04:59:05.166Z,15.80
2023-04-15T05:01:32.666Z,12.07
2023-04-15T05:04:01.442Z,12.27
2023-04-15T05:06:30.526Z,15.50
2023-04-15T05:08:59.775Z,21.60
2023-04-15T05:11:28.411Z,13.27
2023-04-15T05:13:56.115Z,13.87
2023-04-15T05:16:25.804Z,14.60
2023-04-15T05:18:53.286Z,15.60
2023-04-15T05:21:21.343Z,11.47
2023-04-15T05:23:49.062Z,13.40
2023-04-15T05:26:17.878Z,13.90
2023-04-15T05:28:45.372Z,13.97
2023-04-15T05:31:12.910Z,12.17
2023-04-15T05:33:40.640Z,13.53
2023-04-15T05:36:08.395Z,14.30
2023-04-15T05:38:35.968Z,14.03
2023-04-15T05:41:03.492Z,12.73
2023-04-15T05:43:32.315Z,10.30
2023-04-15T05:45:59.852Z,14.47
2023-04-15T05:48:27.455Z,12.00
2023-04-15T05:50:55.027Z,10.93
2023-04-15T05:53:22.621Z,9.53
2023-04-15T05:55:50.126Z,9.73
2023-04-15T05:58:17.629Z,15.17
2023-04-15T06:00:47.366Z,16.47
2023-04-15T06:03:14.980Z,10.43
2023-04-15T06:05:42.490Z,9.70
2023-04-15T06:08:09.963Z,10.67
2023-04-15T06:10:40.662Z,8.47
2023-04-15T06:13:08.536Z,9.57
2023-04-15T06:15:36.166Z,8.50
2023-04-15T06:18:05.184Z,10.20
2023-04-15T06:20:32.782Z,6.83
2023-04-15T06:23:00.547Z,9.73
2023-04-15T06:25:27.996Z,7.97
2023-04-15T06:27:55.629Z,11.90
2023-04-15T06:30:24.489Z,8.20
2023-04-15T06:32:52.566Z,9.90
2023-04-15T06:35:22.053Z,8.30
2023-04-15T06:37:49.528Z,8.17
2023-04-15T06:40:17.149Z,10.10
2023-04-15T06:42:44.629Z,7.30
2023-04-15T06:45:12.702Z,8.70
2023-04-15T06:47:40.823Z,8.43
2023-04-15T06:50:09.974Z,6.70
2023-04-15T06:52:38.884Z,5.87
2023-04-15T06:55:07.920Z,5.53
2023-04-15T06:57:35.436Z,8.87
2023-04-15T07:00:05.606Z,4.87
2023-04-15T07:02:33.142Z,6.90
2023-04-15T07:05:01.688Z,7.20
2023-04-15T07:07:29.182Z,5.87
2023-04-15T07:09:57.987Z,5.07
2023-04-15T07:12:25.779Z,7.57
2023-04-15T07:14:53.436Z,5.77
2023-04-15T07:17:20.954Z,4.73
2023-04-15T07:19:48.509Z,5.63
2023-04-15T07:22:16.242Z,5.50
2023-04-15T07:24:43.878Z,6.10
2023-04-15T07:27:12.630Z,5.30
2023-04-15T07:29:40.615Z,4.03
2023-04-15T07:32:08.228Z,4.93
2023-04-15T07:34:35.724Z,5.30
2023-04-15T07:37:03.382Z,5.00
2023-04-15T07:39:31.174Z,3.47
2023-04-15T07:41:59.003Z,6.40
2023-04-15T07:44:28.337Z,3.30
2023-04-15T07:46:56.006Z,4.43
2023-04-15T07:49:23.845Z,3.80
2023-04-15T07:51:51.582Z,5.53
2023-04-15T07:54:19.122Z,4.10
2023-04-15T07:56:46.590Z,3.10
2023-04-15T07:59:15.280Z,5.60
2023-04-15T08:01:44.974Z,4.00
2023-04-15T08:04:12.760Z,3.33
2023-04-15T08:06:40.278Z,4.07
2023-04-15T08:09:08.232Z,3.00
2023-04-15T08:11:36.467Z,4.60
2023-04-15T08:14:03.986Z,4.13
2023-04-15T08:16:31.841Z,3.63
2023-04-15T08:19:01.234Z,3.70
2023-04-15T08:21:30.817Z,4.30
2023-04-15T08:23:58.521Z,4.27
2023-04-15T08:26:26.415Z,2.80
2023-04-15T08:28:54.179Z,2.57
2023-04-15T08:31:22.387Z,3.10
2023-04-15T08:33:52.074Z,4.43
2023-04-15T08:36:21.052Z,3.97
2023-04-15T08:38:48.553Z,2.80
2023-04-15T08:41:23.146Z,3.10
2023-04-15T08:43:54.977Z,4.33
2023-04-15T08:46:23.544Z,3.30
2023-04-15T08:48:52.091Z,4.07
2023-04-15T08:51:23.260Z,3.30
2023-04-15T08:53:53.412Z,3.13
2023-04-15T08:56:25.738Z,2.57
2023-04-15T08:58:54.176Z,2.60
2023-04-15T09:01:21.921Z,4.17
2023-04-15T09:03:50.750Z,3.60
2023-04-15T09:06:19.126Z,3.67
2023-04-15T09:08:47.996Z,2.70
2023-04-15T09:11:15.559Z,5.40
2023-04-15T09:13:43.095Z,5.10
2023-04-15T09:16:10.992Z,4.37
2023-04-15T09:18:40.318Z,4.60
2023-04-15T09:21:09.359Z,4.20
2023-04-15T09:23:37.954Z,4.30
2023-04-15T09:26:07.333Z,6.30
2023-04-15T09:28:36.012Z,3.73
2023-04-15T09:31:03.577Z,4.87
2023-04-15T09:33:31.723Z,5.60
2023-04-15T09:36:01.875Z,8.80
2023-04-15T09:38:29.518Z,6.97
2023-04-15T09:40:57.150Z,7.10
2023-04-15T09:43:38.747Z,10.20
2023-04-15T09:46:06.640Z,9.07
2023-04-15T09:48:34.228Z,10.10
2023-04-15T09:51:02.960Z,9.27
2023-04-15T09:53:31.828Z,7.73
2023-04-15T09:56:02.304Z,9.37
2023-04-15T09:58:33.373Z,13.27
2023-04-15T10:01:02.610Z,11.60
2023-04-15T10:03:32.237Z,14.83
2023-04-15T10:06:01.907Z,13.97
2023-04-15T10:08:31.430Z,15.07
2023-04-15T10:10:59.319Z,13.93
2023-04-15T10:13:28.820Z,14.27
2023-04-15T10:16:00.447Z,12.47
2023-04-15T10:18:29.664Z,10.27
2023-04-15T10:20:57.663Z,13.40
2023-04-15T10:23:25.684Z,22.43
2023-04-15T10:25:55.213Z,14.60
2023-04-15T10:28:23.459Z,18.03
2023-04-15T10:30:51.992Z,13.73
2023-04-15T10:33:24.432Z,14.10
2023-04-15T10:35:53.745Z,16.90
2023-04-15T10:38:38.497Z,17.67
2023-04-15T10:41:21.579Z,16.10
2023-04-15T10:43:51.449Z,20.00
2023-04-15T10:46:21.821Z,17.73
2023-04-15T10:48:52.340Z,21.43
2023-04-15T10:51:29.145Z,20.23
2023-04-15T10:54:00.939Z,20.83
2023-04-15T10:56:30.217Z,23.00
2023-04-15T10:59:00.255Z,20.13
2023-04-15T11:01:52.850Z,23.20
2023-04-15T11:04:59.819Z,24.40
2023-04-15T11:07:37.991Z,26.87
2023-04-15T11:10:51.424Z,27.40
2023-04-15T11:13:21.981Z,23.60
2023-04-15T11:15:52.045Z,25.93
2023-04-15T11:18:22.113Z,25.27
2023-04-15T11:20:52.230Z,34.73
2023-04-15T11:23:20.867Z,24.03
2023-04-15T11:25:49.051Z,24.73
2023-04-15T11:28:16.726Z,31.00
2023-04-15T11:30:44.614Z,31.07
2023-04-15T11:33:13.995Z,28.27
2023-04-15T11:35:42.645Z,27.70
2023-04-15T11:38:13.876Z,27.33
2023-04-15T11:40:43.864Z,30.10
2023-04-15T11:43:16.532Z,31.23
2023-04-15T11:45:53.599Z,36.03
2023-04-15T11:48:23.185Z,35.07
2023-04-15T11:50:55.357Z,35.57
2023-04-15T11:53:25.314Z,34.53
2023-04-15T11:55:55.284Z,30.90
2023-04-15T11:58:24.974Z,35.90
2023-04-15T12:00:54.634Z,38.90
2023-04-15T12:03:27.339Z,38.47
2023-04-15T12:06:23.497Z,30.70
2023-04-15T12:09:00.106Z,33.50
2023-04-15T12:11:37.145Z,43.73
2023-04-15T12:14:07.991Z,29.50
2023-04-15T12:16:48.163Z,44.50
2023-04-15T12:19:19.678Z,32.73
2023-04-15T12:21:48.708Z,32.27
2023-04-15T12:24:22.102Z,33.87
2023-04-15T12:26:51.098Z,40.60
2023-04-15T12:29:18.995Z,35.37
2023-04-15T12:31:51.568Z,30.80
2023-04-15T12:34:28.391Z,35.40
2023-04-15T12:36:56.771Z,32.60
2023-04-15T12:39:28.670Z,37.57
2023-04-15T12:41:57.901Z,29.87
2023-04-15T12:44:25.513Z,33.30
2023-04-15T12:46:54.261Z,31.63
2023-04-15T12:49:22.516Z,32.77
2023-04-15T12:51:50.971Z,24.50
2023-04-15T12:54:18.832Z,29.23
2023-04-15T12:56:49.023Z,32.10
2023-04-15T12:59:18.367Z,30.60
2023-04-15T13:01:47.314Z,28.73
2023-04-15T13:04:15.111Z,35.70
2023-04-15T13:06:45.381Z,34.57
2023-04-15T13:09:12.868Z,31.70
2023-04-15T13:11:40.770Z,30.03
2023-04-15T13:14:11.286Z,29.00
2023-04-15T13:16:38.933Z,27.77
2023-04-15T13:19:06.484Z,30.23
2023-04-15T13:21:35.762Z,33.37
2023-04-15T13:24:04.734Z,31.23
2023-04-15T13:26:32.737Z,33.70
2023-04-15T13:29:00.546Z,34.90
2023-04-15T13:31:29.398Z,26.67
2023-04-15T13:33:57.718Z,27.00
2023-04-15T13:36:26.371Z,27.47
2023-04-15T13:38:54.063Z,33.07
2023-04-15T13:41:21.822Z,21.83
2023-04-15T13:43:49.589Z,27.37
2023-04-15T13:46:17.111Z,22.30
2023-04-15T13:48:46.218Z,25.47
2023-04-15T13:51:13.783Z,30.60
2023-04-15T13:53:41.243Z,29.20
2023-04-15T13:56:09.267Z,24.47
2023-04-15T13:58:37.428Z,19.27
2023-04-15T14:01:06.820Z,25.40
2023-04-15T14:03:35.889Z,30.53
2023-04-15T14:06:05.973Z,21.70
2023-04-15T14:08:34.006Z,23.03
2023-04-15T14:11:01.572Z,19.93
2023-04-15T14:13:29.344Z,20.20
2023-04-15T14:15:57.812Z,23.40
2023-04-15T14:18:25.380Z,19.83
2023-04-15T14:20:53.339Z,24.07
2023-04-15T14:23:22.266Z,18.87
2023-04-15T14:25:50.146Z,20.27
2023-04-15T14:28:17.752Z,21.43
2023-04-15T14:30:45.609Z,21.63
2023-04-15T14:33:13.358Z,22.03
2023-04-15T14:35:41.950Z,17.80
2023-04-15T14:38:11.163Z,19.53
2023-04-15T14:40:42.236Z,21.37
2023-04-15T14:43:10.004Z,17.13
2023-04-15T14:45:40.694Z,17.40
2023-04-15T14:48:12.519Z,15.67
2023-04-15T14:50:40.306Z,16.30
2023-04-15T14:53:07.866Z,15.03
2023-04-15T14:55:35.539Z,18.70
2023-04-15T14:58:04.420Z,15.33
2023-04-15T15:00:32.006Z,13.53
2023-04-15T15:02:59.990Z,16.33
2023-04-15T15:05:27.849Z,15.10
2023-04-15T15:07:55.428Z,16.53
2023-04-15T15:10:35.610Z,17.60
2023-04-15T15:13:11.802Z,17.10
2023-04-15T15:15:39.988Z,18.23
2023-04-15T15:18:07.825Z,16.03
2023-04-15T15:20:36.247Z,19.70
2023-04-15T15:23:04.107Z,18.07
2023-04-15T15:25:32.028Z,18.67
2023-04-15T15:27:59.836Z,17.87
2023-04-15T15:30:28.886Z,17.47
2023-04-15T15:32:56.493Z,17.80
2023-04-15T15:35:25.834Z,17.93
2023-04-15T15:37:54.944Z,19.17
2023-04-15T15:40:22.606Z,29.80
2023-04-15T15:42:51.103Z,16.80
2023-04-15T15:45:18.767Z,18.50
2023-04-15T15:47:47.785Z,16.77
2023-04-15T15:50:15.396Z,22.83
2023-04-15T15:52:43.037Z,17.77
2023-04-15T15:55:11.519Z,16.80
2023-04-15T15:57:39.001Z,16.60
2023-04-15T16:00:11.958Z,17.87
2023-04-15T16:05:13.330Z,21.40
2023-04-15T16:07:40.866Z,17.70
2023-04-15T16:10:09.621Z,21.17
2023-04-15T16:12:37.415Z,23.63
2023-04-15T16:15:05.860Z,25.30
2023-04-15T16:17:33.630Z,26.03
2023-04-15T16:20:05.228Z,25.13
2023-04-15T16:22:34.491Z,22.90
2023-04-15T16:25:02.415Z,20.70
2023-04-15T16:27:30.113Z,20.70
2023-04-15T16:29:57.590Z,16.60
2023-04-15T16:32:25.434Z,16.13
2023-04-15T16:34:53.806Z,10.93
2023-04-15T16:37:21.702Z,13.23
2023-04-15T16:39:50.530Z,12.07
2023-04-15T16:42:18.072Z,12.47
2023-04-15T16:44:45.563Z,13.47
2023-04-15T16:47:13.277Z,11.23
2023-04-15T16:49:40.709Z,14.80
2023-04-15T16:52:08.521Z,13.57
2023-04-15T16:54:41.043Z,14.00
2023-04-15T16:57:09.948Z,12.10
2023-04-15T16:59:37.405Z,11.57
2023-04-15T17:02:05.017Z,12.37
2023-04-15T17:04:32.741Z,12.97
2023-04-15T17:07:00.471Z,12.93
2023-04-15T17:09:28.115Z,15.57
2023-04-15T17:11:56.065Z,10.27
2023-04-15T17:14:25.162Z,10.17
2023-04-15T17:16:52.838Z,12.60
2023-04-15T17:19:20.277Z,12.90
2023-04-15T17:21:49.496Z,11.97
2023-04-15T17:24:17.058Z,14.23
2023-04-15T17:26:44.792Z,10.50
2023-04-15T17:29:12.427Z,11.87
2023-04-15T17:31:41.378Z,11.77
2023-04-15T17:34:09.506Z,9.97
2023-04-15T17:36:39.034Z,14.40
2023-04-15T17:39:06.843Z,12.60
2023-04-15T17:41:34.494Z,10.60
2023-04-15T17:44:02.057Z,15.97
2023-04-15T17:46:29.868Z,13.03
2023-04-15T17:48:58.869Z,18.30
2023-04-15T17:51:26.390Z,14.10
2023-04-15T17:54:07.587Z,11.53
2023-04-15T17:56:35.441Z,12.37
2023-04-15T17:59:03.427Z,9.57
2023-04-15T18:01:31.141Z,12.83
2023-04-15T18:04:00.345Z,12.93
2023-04-15T18:06:28.066Z,16.70
2023-04-15T18:08:56.059Z,14.57
2023-04-15T18:11:23.980Z,15.47
2023-04-15T18:13:51.499Z,14.27
2023-04-15T18:16:19.345Z,12.93
2023-04-15T18:18:46.804Z,12.37
2023-04-15T18:21:15.611Z,13.40
2023-04-15T18:23:43.212Z,14.87
2023-04-15T18:26:10.986Z,14.63
2023-04-15T18:28:39.700Z,12.87
2023-04-15T18:31:07.419Z,13.70
2023-04-15T18:33:35.687Z,14.17
2023-04-15T18:36:03.381Z,12.77
2023-04-15T18:38:32.284Z,16.93
2023-04-15T18:40:59.837Z,13.87
2023-04-15T18:43:27.324Z,13.50
2023-04-15T18:45:54.989Z,13.90
2023-04-15T18:48:22.903Z,17.37
2023-04-15T18:50:53.865Z,15.80
2023-04-15T18:53:21.762Z,14.37
2023-04-15T18:55:50.736Z,14.77
2023-04-15T18:58:18.299Z,16.77
2023-04-15T19:00:45.804Z,12.30
2023-04-15T19:03:13.367Z,16.93
2023-04-15T19:05:41.044Z,13.80
2023-04-15T19:08:08.674Z,12.87
2023-04-15T19:10:36.156Z,12.10
2023-04-15T19:13:05.082Z,14.07
2023-04-15T19:15:33.336Z,16.47
2023-04-15T19:18:01.128Z,11.53
2023-04-15T19:20:28.701Z,16.40
2023-04-15T19:22:56.898Z,13.13
2023-04-15T19:25:24.556Z,15.43
2023-04-15T19:27:52.439Z,11.60
2023-04-15T19:30:21.915Z,16.40
2023-04-15T19:32:49.535Z,13.87
2023-04-15T19:35:17.196Z,11.77
2023-04-15T19:37:45.528Z,12.80
2023-04-15T19:40:13.916Z,14.80
2023-04-15T19:42:41.390Z,12.80
2023-04-15T19:45:09.758Z,13.40
2023-04-15T19:47:38.692Z,13.07
2023-04-15T19:50:07.826Z,16.90
2023-04-15T19:52:35.456Z,12.23
2023-04-15T19:55:03.593Z,15.70
2023-04-15T19:57:31.386Z,14.67
2023-04-15T19:59:58.867Z,13.50
2023-04-15T20:02:26.529Z,10.47
2023-04-15T20:04:55.888Z,13.30
2023-04-15T20:07:23.330Z,10.80
2023-04-15T20:09:51.924Z,12.57
2023-04-15T20:12:50.054Z,9.53
2023-04-15T20:15:08.751Z,12.30
2023-04-15T20:17:37.210Z,14.60
2023-04-15T20:20:07.740Z,13.60
2023-04-15T20:22:35.912Z,15.90
2023-04-15T20:25:04.344Z,15.13
2023-04-15T20:27:31.948Z,12.00
2023-04-15T20:29:59.691Z,13.40
2023-04-15T20:32:32.858Z,11.20
2023-04-15T20:35:04.213Z,13.87
2023-04-15T20:37:34.566Z,13.47
2023-04-15T20:40:02.663Z,11.43
2023-04-15T20:42:33.346Z,9.90
2023-04-15T20:45:01.355Z,13.40
2023-04-15T20:47:34.964Z,13.20
2023-04-15T20:50:09.707Z,14.50
2023-04-15T20:52:39.195Z,12.30
2023-04-15T20:55:08.383Z,13.40
2023-04-15T20:57:35.936Z,11.50
2023-04-15T21:00:04.956Z,15.63
2023-04-15T21:02:32.528Z,11.63
2023-04-15T21:05:00.085Z,12.67
2023-04-15T21:07:27.593Z,11.10
2023-04-15T21:09:56.516Z,11.93
2023-04-15T21:12:24.039Z,13.00
2023-04-15T21:14:51.535Z,16.20
2023-04-15T21:17:19.100Z,15.03
2023-04-15T21:19:46.719Z,12.90
2023-04-15T21:22:14.203Z,16.80
2023-04-15T21:24:41.682Z,15.73
2023-04-15T21:27:10.682Z,15.37
2023-04-15T21:29:40.165Z,16.03
2023-04-15T21:32:07.819Z,15.97
2023-04-15T21:34:35.542Z,15.97
2023-04-15T21:37:03.356Z,16.33
2023-04-15T21:39:30.920Z,17.53
2023-04-15T21:41:59.653Z,16.97
2023-04-15T21:44:28.488Z,22.00
2023-04-15T21:46:56.401Z,16.77
2023-04-15T21:49:25.539Z,13.33
2023-04-15T21:51:53.097Z,19.37
2023-04-15T21:54:20.606Z,18.13
2023-04-15T21:56:49.661Z,18.37
2023-04-15T21:59:17.907Z,19.00
2023-04-15T22:01:49.534Z,17.73
2023-04-15T22:04:19.429Z,16.53
2023-04-15T22:06:47.812Z,15.97
2023-04-15T22:09:15.638Z,19.00
2023-04-15T22:11:43.447Z,17.40
2023-04-15T22:14:10.893Z,18.83
2023-04-15T22:16:38.709Z,16.07
2023-04-15T22:19:07.909Z,18.00
2023-04-15T22:21:35.702Z,19.10
2023-04-15T22:24:34.550Z,16.80
2023-04-15T22:26:51.117Z,19.33
2023-04-15T22:29:18.919Z,18.83
2023-04-15T22:31:46.780Z,20.60
2023-04-15T22:34:21.066Z,26.20
2023-04-15T22:36:48.985Z,18.17
2023-04-15T22:39:16.728Z,20.13
2023-04-15T22:41:44.690Z,16.57
2023-04-15T22:44:12.357Z,18.23
2023-04-15T22:46:40.411Z,19.40
2023-04-15T22:49:09.392Z,19.93
2023-04-15T22:51:38.204Z,14.40
2023-04-15T22:54:06.284Z,23.70
2023-04-15T22:56:33.900Z,19.83
2023-04-15T22:59:02.698Z,21.17
2023-04-15T23:01:31.892Z,17.90
2023-04-15T23:04:03.915Z,18.40
2023-04-15T23:06:33.686Z,21.50
2023-04-15T23:09:02.525Z,19.30
2023-04-15T23:11:31.913Z,21.80
2023-04-15T23:13:59.826Z,20.80
2023-04-15T23:16:27.912Z,19.83
2023-04-15T23:18:55.558Z,25.03
2023-04-15T23:21:25.471Z,19.13
2023-04-15T23:23:53.571Z,24.00
2023-04-15T23:26:22.342Z,21.57
2023-04-15T23:28:49.769Z,20.77
2023-04-15T23:31:17.367Z,22.23
2023-04-15T23:33:44.812Z,21.93
2023-04-15T23:36:12.268Z,25.83
2023-04-15T23:38:39.707Z,26.63
2023-04-15T23:41:07.152Z,24.97
2023-04-15T23:43:35.985Z,23.13
2023-04-15T23:46:03.425Z,20.57
2023-04-15T23:48:31.938Z,27.07
2023-04-15T23:51:00.583Z,22.47
2023-04-15T23:53:29.618Z,19.97
2023-04-15T23:55:57.173Z,27.57
2023-04-15T23:58:24.968Z,23.57
